createdAt,value
2019-03-15T00:01:26.390Z,23.80
2019-03-15T00:03:59.226Z,24.00
2019-03-15T00:06:31.561Z,24.10
2019-03-15T00:09:05.264Z,24.10
2019-03-15T00:11:37.740Z,24.10
2019-03-15T00:14:10.739Z,24.00
2019-03-15T00:16:43.587Z,23.90
2019-03-15T00:19:16.161Z,24.00
2019-03-15T00:21:48.552Z,24.20
2019-03-15T00:24:20.915Z,24.40
2019-03-15T00:26:53.410Z,24.50
2019-03-15T00:29:26.395Z,24.60
2019-03-15T00:31:59.107Z,24.70
2019-03-15T00:34:31.758Z,24.80
2019-03-15T00:37:04.358Z,25.00
2019-03-15T00:39:36.836Z,25.10
2019-03-15T00:42:09.302Z,25.10
2019-03-15T00:44:41.828Z,25.20
2019-03-15T00:47:14.148Z,25.30
2019-03-15T00:50:07.469Z,25.40
2019-03-15T00:52:40.042Z,25.50
2019-03-15T00:55:12.820Z,25.70
2019-03-15T00:57:45.250Z,25.70
2019-03-15T01:00:18.913Z,25.70
2019-03-15T01:02:54.168Z,25.90
2019-03-15T01:05:26.791Z,26.00
2019-03-15T01:07:59.770Z,26.10
2019-03-15T01:10:32.291Z,26.10
2019-03-15T01:13:04.715Z,26.30
2019-03-15T01:15:37.411Z,26.50
2019-03-15T01:18:09.902Z,26.60
2019-03-15T01:20:42.442Z,26.60
2019-03-15T01:23:15.151Z,26.60
2019-03-15T01:25:47.838Z,26.70
2019-03-15T01:28:20.263Z,26.90
2019-03-15T01:30:52.965Z,27.00
2019-03-15T01:33:26.648Z,27.20
2019-03-15T01:35:59.290Z,27.40
2019-03-15T01:38:31.639Z,27.50
2019-03-15T01:41:04.484Z,27.60
2019-03-15T01:43:36.819Z,27.70
2019-03-15T01:46:09.602Z,27.80
2019-03-15T01:48:42.601Z,27.90
2019-03-15T01:51:15.648Z,28.00
2019-03-15T01:53:48.415Z,28.00
2019-03-15T01:56:21.127Z,28.10
2019-03-15T01:58:53.625Z,28.20
2019-03-15T02:01:26.325Z,28.50
2019-03-15T02:03:59.431Z,28.50
2019-03-15T02:06:33.401Z,28.60
2019-03-15T02:09:09.137Z,29.00
2019-03-15T02:11:40.519Z,29.10
2019-03-15T02:14:13.018Z,28.90
2019-03-15T02:16:45.431Z,29.10
2019-03-15T02:19:17.872Z,29.20
2019-03-15T02:21:50.177Z,29.40
2019-03-15T02:24:22.861Z,29.40
2019-03-15T02:26:55.261Z,29.40
2019-03-15T02:29:28.743Z,29.50
2019-03-15T02:32:01.186Z,29.60
2019-03-15T02:34:34.229Z,30.00
2019-03-15T02:37:07.317Z,30.10
2019-03-15T02:39:39.874Z,30.40
2019-03-15T02:42:13.115Z,30.30
2019-03-15T02:44:45.555Z,30.60
2019-03-15T02:47:19.572Z,30.90
2019-03-15T02:49:53.191Z,31.00
2019-03-15T02:52:25.855Z,31.00
2019-03-15T02:54:58.531Z,31.10
2019-03-15T02:57:30.859Z,31.40
2019-03-15T03:00:03.125Z,31.40
2019-03-15T03:02:36.994Z,31.50
2019-03-15T03:05:11.344Z,31.50
2019-03-15T03:07:43.585Z,31.50
2019-03-15T03:10:16.249Z,31.60
2019-03-15T03:12:48.823Z,31.80
2019-03-15T03:15:21.355Z,32.10
2019-03-15T03:17:53.848Z,32.40
2019-03-15T03:20:26.646Z,32.40
2019-03-15T03:22:58.827Z,32.20
2019-03-15T03:25:31.735Z,32.20
2019-03-15T03:28:04.342Z,32.50
2019-03-15T03:30:36.885Z,32.60
2019-03-15T03:33:08.967Z,32.90
2019-03-15T03:35:42.760Z,32.80
2019-03-15T03:38:15.653Z,32.80
2019-03-15T03:40:48.190Z,32.90
2019-03-15T03:43:20.513Z,33.10
2019-03-15T03:45:53.060Z,33.10
2019-03-15T03:48:25.528Z,33.20
2019-03-15T03:51:00.007Z,33.30
2019-03-15T03:53:32.338Z,33.40
2019-03-15T03:56:04.757Z,33.60
2019-03-15T03:58:37.120Z,33.60
2019-03-15T04:09:31.740Z,33.80
2019-03-15T04:12:05.486Z,34.40
2019-03-15T04:14:37.908Z,34.20
2019-03-15T04:17:10.393Z,34.30
2019-03-15T04:19:42.705Z,34.20
2019-03-15T04:22:15.138Z,34.50
2019-03-15T04:24:47.721Z,34.70
2019-03-15T04:27:20.031Z,35.00
2019-03-15T04:29:52.611Z,34.70
2019-03-15T04:32:25.604Z,35.00
2019-03-15T04:34:58.054Z,35.10
2019-03-15T04:37:30.975Z,34.70
2019-03-15T04:40:03.505Z,35.10
2019-03-15T04:42:36.103Z,34.90
2019-03-15T04:45:10.560Z,35.10
2019-03-15T04:47:43.774Z,34.90
2019-03-15T04:50:16.634Z,34.50
2019-03-15T04:52:49.395Z,35.10
2019-03-15T04:55:21.772Z,35.30
2019-03-15T04:57:54.135Z,35.50
2019-03-15T05:00:26.632Z,35.60
2019-03-15T05:02:59.201Z,35.80
2019-03-15T05:05:31.811Z,36.00
2019-03-15T05:08:04.383Z,36.40
2019-03-15T05:10:36.667Z,36.50
2019-03-15T05:13:10.103Z,36.40
2019-03-15T05:15:42.292Z,36.30
2019-03-15T05:18:14.631Z,36.10
2019-03-15T05:20:46.714Z,36.10
2019-03-15T05:23:19.623Z,36.10
2019-03-15T05:25:52.030Z,36.40
2019-03-15T05:28:24.734Z,36.70
2019-03-15T05:30:57.265Z,36.60
2019-03-15T05:33:29.999Z,36.80
2019-03-15T05:36:02.571Z,37.10
2019-03-15T05:38:35.557Z,37.00
2019-03-15T05:41:08.210Z,36.80
2019-03-15T05:43:41.706Z,36.70
2019-03-15T05:46:14.470Z,37.10
2019-03-15T05:48:46.879Z,37.30
2019-03-15T05:51:19.272Z,37.20
2019-03-15T05:53:51.858Z,37.10
2019-03-15T05:56:24.443Z,37.10
2019-03-15T05:58:56.818Z,37.00
2019-03-15T06:01:29.195Z,37.30
2019-03-15T06:04:01.820Z,37.70
2019-03-15T06:06:34.200Z,37.40
2019-03-15T06:09:07.956Z,37.00
2019-03-15T06:11:40.378Z,37.70
2019-03-15T06:14:12.955Z,37.90
2019-03-15T06:16:45.686Z,38.10
2019-03-15T06:19:18.110Z,37.80
2019-03-15T06:21:50.468Z,37.80
2019-03-15T06:24:23.058Z,37.70
2019-03-15T06:26:55.443Z,37.60
2019-03-15T06:29:28.766Z,37.80
2019-03-15T06:32:01.143Z,37.80
2019-03-15T06:34:33.976Z,37.70
2019-03-15T06:37:06.734Z,37.90
2019-03-15T06:39:39.082Z,38.00
2019-03-15T06:42:11.477Z,37.90
2019-03-15T06:44:57.028Z,38.30
2019-03-15T06:47:17.873Z,38.10
2019-03-15T06:49:50.577Z,38.20
2019-03-15T06:52:23.215Z,38.30
2019-03-15T06:54:56.200Z,38.30
2019-03-15T06:57:28.917Z,37.90
2019-03-15T07:00:01.502Z,37.40
2019-03-15T07:02:34.147Z,37.90
2019-03-15T07:05:11.683Z,38.40
2019-03-15T07:07:42.400Z,38.40
2019-03-15T07:10:14.922Z,38.60
2019-03-15T07:12:47.659Z,38.70
2019-03-15T07:15:20.181Z,39.00
2019-03-15T07:17:52.832Z,38.90
2019-03-15T07:20:25.764Z,39.00
2019-03-15T07:22:58.412Z,38.70
2019-03-15T07:25:30.930Z,38.70
2019-03-15T07:28:03.784Z,38.90
2019-03-15T07:30:36.018Z,38.70
2019-03-15T07:33:08.756Z,38.60
2019-03-15T07:35:41.526Z,38.90
2019-03-15T07:38:14.212Z,38.00
2019-03-15T07:40:46.822Z,38.60
2019-03-15T07:43:20.166Z,38.60
2019-03-15T07:45:52.815Z,38.80
2019-03-15T07:48:26.886Z,38.70
2019-03-15T07:51:00.619Z,38.80
2019-03-15T07:53:35.402Z,38.90
2019-03-15T07:56:07.195Z,38.90
2019-03-15T07:58:39.670Z,38.30
2019-03-15T08:01:12.451Z,38.30
2019-03-15T08:03:45.007Z,37.90
2019-03-15T08:06:17.498Z,38.50
2019-03-15T08:08:50.561Z,38.60
2019-03-15T08:11:23.225Z,38.50
2019-03-15T08:13:55.987Z,38.40
2019-03-15T08:16:28.898Z,38.30
2019-03-15T08:19:04.846Z,38.30
2019-03-15T08:21:36.511Z,38.70
2019-03-15T08:24:09.309Z,38.50
2019-03-15T08:26:42.192Z,38.70
2019-03-15T08:29:14.843Z,38.60
2019-03-15T08:31:47.381Z,38.50
2019-03-15T08:34:19.947Z,38.20
2019-03-15T08:36:52.516Z,38.10
2019-03-15T08:39:24.910Z,38.00
2019-03-15T08:41:57.444Z,37.90
2019-03-15T08:44:30.008Z,38.00
2019-03-15T08:47:03.051Z,38.20
2019-03-15T08:49:35.741Z,38.00
2019-03-15T08:52:08.201Z,38.20
2019-03-15T08:54:40.748Z,38.10
2019-03-15T08:57:13.577Z,38.10
2019-03-15T08:59:55.560Z,38.20
2019-03-15T09:02:20.263Z,38.10
2019-03-15T09:04:54.012Z,37.80
2019-03-15T09:07:26.744Z,37.80
2019-03-15T09:09:59.460Z,37.70
2019-03-15T09:12:31.993Z,37.90
2019-03-15T09:15:04.543Z,37.90
2019-03-15T09:17:37.610Z,37.80
2019-03-15T09:20:11.810Z,37.40
2019-03-15T09:22:44.325Z,37.40
2019-03-15T09:25:20.215Z,37.20
2019-03-15T09:27:52.594Z,37.30
2019-03-15T09:30:25.164Z,37.30
2019-03-15T09:32:58.249Z,37.20
2019-03-15T09:35:30.763Z,37.10
2019-03-15T09:38:03.767Z,37.00
2019-03-15T09:40:36.667Z,37.20
2019-03-15T09:43:09.651Z,37.10
2019-03-15T09:45:42.836Z,37.10
2019-03-15T09:48:15.370Z,37.00
2019-03-15T09:50:51.613Z,36.90
2019-03-15T09:53:22.080Z,36.80
2019-03-15T09:55:55.233Z,36.80
2019-03-15T09:58:28.232Z,36.50
2019-03-15T10:01:01.327Z,36.50
2019-03-15T10:03:34.083Z,36.50
2019-03-15T10:06:14.771Z,36.40
2019-03-15T10:08:41.212Z,36.30
2019-03-15T10:11:15.127Z,36.30
2019-03-15T10:13:47.955Z,36.30
2019-03-15T10:16:20.577Z,36.10
2019-03-15T10:18:53.482Z,36.00
2019-03-15T10:21:26.187Z,35.90
2019-03-15T10:23:58.696Z,35.80
2019-03-15T10:26:31.061Z,35.70
2019-03-15T10:29:14.684Z,35.70
2019-03-15T10:31:37.663Z,35.60
2019-03-15T10:34:10.218Z,35.50
2019-03-15T10:36:42.521Z,35.50
2019-03-15T10:39:14.874Z,35.30
2019-03-15T10:41:47.403Z,35.20
2019-03-15T10:44:20.313Z,35.20
2019-03-15T10:46:52.710Z,35.00
2019-03-15T10:49:25.126Z,34.90
2019-03-15T10:51:57.938Z,34.80
2019-03-15T10:54:31.539Z,34.80
2019-03-15T10:57:05.299Z,34.60
2019-03-15T10:59:37.847Z,34.50
2019-03-15T11:02:10.827Z,34.50
2019-03-15T11:04:42.927Z,34.50
2019-03-15T11:07:25.530Z,34.40
2019-03-15T11:09:57.920Z,34.20
2019-03-15T11:12:30.770Z,34.20
2019-03-15T11:15:03.085Z,34.00
2019-03-15T11:17:35.861Z,34.00
2019-03-15T11:20:13.259Z,33.90
2019-03-15T11:22:45.849Z,33.80
2019-03-15T11:25:18.165Z,33.70
2019-03-15T11:27:50.887Z,33.70
2019-03-15T11:30:23.586Z,33.60
2019-03-15T11:32:55.904Z,33.50
2019-03-15T11:35:28.687Z,33.40
2019-03-15T11:38:01.213Z,33.40
2019-03-15T11:40:33.797Z,33.40
2019-03-15T11:43:06.761Z,33.30
2019-03-15T11:45:39.476Z,33.20
2019-03-15T11:48:12.554Z,33.20
2019-03-15T11:50:45.015Z,33.10
2019-03-15T11:53:18.881Z,33.00
2019-03-15T11:55:51.544Z,32.70
2019-03-15T11:58:24.250Z,32.60
2019-03-15T12:00:56.632Z,32.60
2019-03-15T12:03:29.234Z,32.70
2019-03-15T12:06:01.529Z,32.80
2019-03-15T12:08:34.280Z,32.80
2019-03-15T12:11:06.674Z,32.70
2019-03-15T12:13:39.630Z,32.70
2019-03-15T12:16:12.444Z,32.60
2019-03-15T12:18:44.932Z,32.40
2019-03-15T12:21:17.368Z,32.40
2019-03-15T12:23:49.722Z,32.30
2019-03-15T12:26:22.051Z,32.30
2019-03-15T12:28:55.036Z,32.10
2019-03-15T12:31:27.565Z,32.10
2019-03-15T12:34:00.428Z,32.10
2019-03-15T12:36:32.744Z,32.10
2019-03-15T12:39:07.016Z,32.00
2019-03-15T12:41:39.928Z,32.00
2019-03-15T12:44:12.609Z,31.90
2019-03-15T12:46:44.902Z,31.90
2019-03-15T12:49:17.405Z,31.90
2019-03-15T12:51:49.969Z,31.90
2019-03-15T12:54:22.773Z,31.80
2019-03-15T12:56:55.617Z,31.80
2019-03-15T12:59:28.096Z,31.80
2019-03-15T13:02:00.546Z,31.70
2019-03-15T13:04:32.898Z,31.70
2019-03-15T13:07:05.613Z,31.60
2019-03-15T13:09:37.705Z,31.50
2019-03-15T13:12:10.302Z,31.40
2019-03-15T13:14:42.441Z,31.50
2019-03-15T13:17:15.271Z,31.50
2019-03-15T13:19:55.076Z,31.40
2019-03-15T13:22:22.021Z,31.40
2019-03-15T13:24:54.652Z,31.40
2019-03-15T13:27:27.486Z,31.40
2019-03-15T13:30:00.413Z,31.40
2019-03-15T13:32:34.348Z,31.30
2019-03-15T13:35:07.804Z,31.30
2019-03-15T13:37:42.880Z,31.30
2019-03-15T13:40:16.100Z,31.30
2019-03-15T13:42:48.740Z,31.20
2019-03-15T13:45:21.257Z,31.10
2019-03-15T13:47:53.890Z,31.10
2019-03-15T13:50:26.437Z,31.10
2019-03-15T13:52:58.904Z,31.10
2019-03-15T13:55:34.447Z,31.00
2019-03-15T13:58:19.253Z,31.00
2019-03-15T14:00:51.658Z,31.00
2019-03-15T14:03:24.826Z,31.00
2019-03-15T14:05:57.446Z,31.00
2019-03-15T14:08:29.957Z,30.90
2019-03-15T14:11:03.537Z,30.90
2019-03-15T14:13:35.681Z,30.90
2019-03-15T14:16:08.565Z,30.90
2019-03-15T14:18:41.063Z,30.80
2019-03-15T14:21:13.759Z,30.80
2019-03-15T14:23:47.637Z,30.70
2019-03-15T14:26:20.445Z,30.70
2019-03-15T14:28:52.791Z,30.70
2019-03-15T14:31:25.141Z,30.60
2019-03-15T14:33:57.550Z,30.60
2019-03-15T14:36:29.997Z,30.60
2019-03-15T14:39:02.468Z,30.60
2019-03-15T14:41:34.719Z,30.50
2019-03-15T14:44:26.342Z,30.50
2019-03-15T14:46:58.746Z,30.40
2019-03-15T14:49:31.092Z,30.40
2019-03-15T14:52:03.951Z,30.30
2019-03-15T14:54:37.184Z,30.30
2019-03-15T14:57:21.776Z,30.30
2019-03-15T14:59:54.933Z,30.30
2019-03-15T15:02:27.623Z,30.20
2019-03-15T15:05:00.818Z,30.10
2019-03-15T15:07:33.587Z,30.10
2019-03-15T15:10:08.716Z,30.00
2019-03-15T15:12:40.938Z,30.00
2019-03-15T15:15:15.521Z,30.10
2019-03-15T15:17:48.126Z,30.00
2019-03-15T15:20:20.849Z,29.90
2019-03-15T15:22:53.163Z,29.90
2019-03-15T15:25:25.759Z,29.70
2019-03-15T15:28:04.386Z,29.80
2019-03-15T15:30:31.846Z,29.80
2019-03-15T15:33:04.220Z,29.80
2019-03-15T15:35:37.942Z,29.80
2019-03-15T15:38:29.097Z,29.80
2019-03-15T15:41:01.504Z,29.80
2019-03-15T15:43:34.265Z,29.80
2019-03-15T15:46:06.683Z,29.80
2019-03-15T15:48:40.039Z,29.80
2019-03-15T15:51:13.238Z,29.70
2019-03-15T15:53:45.711Z,29.60
2019-03-15T15:56:18.111Z,29.60
2019-03-15T15:58:50.764Z,29.60
2019-03-15T16:01:23.399Z,29.60
2019-03-15T16:04:03.966Z,29.60
2019-03-15T16:06:36.710Z,29.50
2019-03-15T16:09:10.035Z,29.50
2019-03-15T16:11:42.375Z,29.50
2019-03-15T16:14:15.641Z,29.40
2019-03-15T16:16:47.950Z,29.40
2019-03-15T16:19:21.165Z,29.40
2019-03-15T16:21:53.452Z,29.40
2019-03-15T16:24:25.824Z,29.30
2019-03-15T16:26:58.244Z,29.30
2019-03-15T16:29:31.316Z,29.20
2019-03-15T16:32:03.853Z,29.20
2019-03-15T16:34:36.102Z,29.30
2019-03-15T16:37:08.537Z,29.30
2019-03-15T16:39:40.762Z,29.30
2019-03-15T16:42:13.405Z,29.20
2019-03-15T16:44:45.791Z,29.20
2019-03-15T16:47:18.476Z,29.20
2019-03-15T16:49:51.819Z,29.20
2019-03-15T16:52:25.259Z,29.20
2019-03-15T16:54:58.003Z,29.10
2019-03-15T16:57:30.486Z,29.10
2019-03-15T17:00:02.819Z,29.10
2019-03-15T17:02:35.800Z,29.00
2019-03-15T17:05:10.870Z,29.00
2019-03-15T17:07:43.862Z,29.00
2019-03-15T17:10:17.995Z,28.90
2019-03-15T17:12:51.149Z,28.90
2019-03-15T17:15:26.197Z,28.90
2019-03-15T17:17:58.914Z,28.80
2019-03-15T17:20:34.268Z,28.80
2019-03-15T17:23:07.598Z,28.70
2019-03-15T17:25:39.934Z,28.70
2019-03-15T17:28:12.510Z,28.70
2019-03-15T17:30:45.894Z,28.70
2019-03-15T17:33:18.644Z,28.70
2019-03-15T17:35:51.183Z,28.70
2019-03-15T17:38:23.935Z,28.60
2019-03-15T17:40:56.372Z,28.70
2019-03-15T17:43:28.881Z,28.70
2019-03-15T17:46:01.394Z,28.60
2019-03-15T17:48:35.123Z,28.60
2019-03-15T17:51:07.755Z,28.50
2019-03-15T17:53:40.375Z,28.50
2019-03-15T17:56:13.108Z,28.40
2019-03-15T17:58:45.539Z,28.40
2019-03-15T18:01:18.428Z,28.40
2019-03-15T18:03:50.988Z,28.40
2019-03-15T18:06:23.278Z,28.40
2019-03-15T18:08:55.709Z,28.40
2019-03-15T18:11:28.100Z,28.40
2019-03-15T18:14:00.628Z,28.30
2019-03-15T18:16:33.339Z,28.30
2019-03-15T18:19:05.969Z,28.30
2019-03-15T18:21:38.278Z,28.10
2019-03-15T18:24:10.980Z,28.20
2019-03-15T18:26:43.421Z,28.20
2019-03-15T18:29:25.860Z,28.20
2019-03-15T18:31:49.727Z,28.10
2019-03-15T18:34:22.105Z,28.00
2019-03-15T18:36:54.422Z,28.00
2019-03-15T18:39:27.086Z,28.10
2019-03-15T18:41:59.805Z,28.00
2019-03-15T18:44:32.337Z,28.00
2019-03-15T18:47:04.725Z,27.90
2019-03-15T18:49:37.123Z,27.90
2019-03-15T18:52:09.724Z,27.90
2019-03-15T18:54:42.110Z,27.80
2019-03-15T18:57:14.726Z,27.70
2019-03-15T18:59:47.411Z,27.70
2019-03-15T19:02:19.984Z,27.80
2019-03-15T19:04:52.618Z,27.70
2019-03-15T19:07:24.957Z,27.70
2019-03-15T19:09:57.559Z,27.70
2019-03-15T19:12:30.014Z,27.60
2019-03-15T19:15:02.378Z,27.50
2019-03-15T19:17:35.039Z,27.50
2019-03-15T19:20:10.157Z,27.50
2019-03-15T19:22:44.495Z,27.50
2019-03-15T19:25:17.844Z,27.50
2019-03-15T19:27:50.459Z,27.50
2019-03-15T19:30:23.537Z,27.50
2019-03-15T19:32:56.327Z,27.40
2019-03-15T19:35:28.647Z,27.40
2019-03-15T19:38:01.178Z,27.30
2019-03-15T19:40:34.993Z,27.40
2019-03-15T19:43:07.566Z,27.30
2019-03-15T19:45:41.455Z,27.30
2019-03-15T19:48:13.999Z,27.30
2019-03-15T19:50:46.895Z,27.20
2019-03-15T19:53:19.426Z,27.20
2019-03-15T19:55:54.944Z,27.10
2019-03-15T19:58:27.606Z,27.20
2019-03-15T20:01:00.234Z,27.10
2019-03-15T20:03:43.557Z,27.10
2019-03-15T20:06:07.667Z,27.10
2019-03-15T20:08:40.678Z,27.10
2019-03-15T20:11:13.445Z,27.10
2019-03-15T20:13:46.182Z,27.00
2019-03-15T20:16:18.705Z,27.00
2019-03-15T20:18:51.167Z,27.00
2019-03-15T20:21:23.896Z,26.90
2019-03-15T20:23:56.524Z,26.90
2019-03-15T20:26:28.913Z,26.90
2019-03-15T20:29:01.833Z,26.90
2019-03-15T20:31:34.218Z,26.90
2019-03-15T20:34:07.149Z,26.90
2019-03-15T20:36:39.646Z,26.90
2019-03-15T20:39:12.250Z,26.80
2019-03-15T20:41:44.743Z,26.80
2019-03-15T20:44:27.898Z,26.80
2019-03-15T20:46:51.183Z,26.80
2019-03-15T20:49:23.648Z,26.70
2019-03-15T20:51:56.706Z,26.60
2019-03-15T20:54:29.071Z,26.70
2019-03-15T20:57:01.480Z,26.70
2019-03-15T20:59:33.989Z,26.50
2019-03-15T21:02:06.608Z,26.60
2019-03-15T21:04:39.072Z,26.40
2019-03-15T21:07:11.389Z,26.50
2019-03-15T21:09:43.872Z,26.50
2019-03-15T21:12:16.284Z,26.50
2019-03-15T21:14:49.251Z,26.50
2019-03-15T21:17:21.705Z,26.50
2019-03-15T21:19:54.258Z,26.50
2019-03-15T21:22:27.070Z,26.40
2019-03-15T21:24:59.895Z,26.40
2019-03-15T21:27:32.501Z,26.40
2019-03-15T21:30:06.178Z,26.30
2019-03-15T21:32:39.045Z,26.20
2019-03-15T21:35:13.056Z,26.10
2019-03-15T21:37:45.803Z,26.20
2019-03-15T21:40:20.442Z,26.10
2019-03-15T21:42:52.899Z,26.10
2019-03-15T21:45:25.597Z,26.10
2019-03-15T21:47:57.944Z,26.10
2019-03-15T21:50:31.840Z,26.20
2019-03-15T21:53:04.465Z,26.10
2019-03-15T21:55:37.424Z,26.10
2019-03-15T21:58:09.920Z,26.10
2019-03-15T22:00:42.730Z,25.90
2019-03-15T22:03:15.343Z,25.90
2019-03-15T22:05:48.140Z,25.90
2019-03-15T22:08:20.628Z,26.00
2019-03-15T22:10:53.255Z,26.00
2019-03-15T22:13:25.864Z,26.00
2019-03-15T22:15:58.409Z,25.90
2019-03-15T22:18:30.732Z,25.90
2019-03-15T22:21:03.490Z,25.90
2019-03-15T22:23:35.779Z,25.70
2019-03-15T22:26:08.528Z,25.70
2019-03-15T22:28:40.856Z,25.70
2019-03-15T22:31:16.790Z,25.60
2019-03-15T22:33:47.929Z,25.70
2019-03-15T22:36:20.572Z,25.50
2019-03-15T22:38:53.344Z,25.60
2019-03-15T22:41:26.028Z,25.50
2019-03-15T22:43:58.405Z,25.60
2019-03-15T22:46:30.792Z,25.50
2019-03-15T22:49:03.181Z,25.40
2019-03-15T22:51:36.184Z,25.50
2019-03-15T22:54:08.752Z,25.40
2019-03-15T22:56:41.722Z,25.50
2019-03-15T22:59:14.303Z,25.50
2019-03-15T23:01:47.166Z,25.30
2019-03-15T23:04:19.609Z,25.30
2019-03-15T23:06:52.131Z,25.50
2019-03-15T23:09:24.704Z,25.50
2019-03-15T23:11:57.635Z,25.30
2019-03-15T23:14:31.257Z,25.40
2019-03-15T23:17:03.910Z,25.40
2019-03-15T23:19:36.317Z,25.30
2019-03-15T23:22:09.121Z,25.30
2019-03-15T23:24:41.650Z,25.40
2019-03-15T23:27:14.438Z,25.50
2019-03-15T23:29:47.542Z,25.50
2019-03-15T23:32:20.434Z,25.60
2019-03-15T23:34:53.271Z,25.60
2019-03-15T23:37:26.049Z,25.30
2019-03-15T23:39:58.491Z,25.10
2019-03-15T23:42:30.970Z,25.20
2019-03-15T23:45:03.416Z,25.30
2019-03-15T23:47:35.967Z,25.50
2019-03-15T23:50:10.829Z,25.50
2019-03-15T23:52:43.284Z,25.60
2019-03-15T23:55:15.966Z,25.70
2019-03-15T23:57:48.674Z,25.80
